Aviation Digital Data Service (ADDS)

Output produced by METARs form (1013 UTC 04 December 2016)
found at http://www.aviationweather.gov/adds/metars/
 
KIPT 040954Z AUTO 34007KT 10SM OVC041 05/M04 A3022 RMK AO2 SLP237 T00501039
KIPT 040854Z AUTO 32007KT 10SM OVC043 05/M04 A3023 RMK AO2 SLP240 T00501039 53002
KIPT 040754Z AUTO 33008KT 10SM OVC046 06/M05 A3023 RMK AO2 SLP240 T00561050
KIPT 040654Z AUTO 32010KT 10SM OVC047 06/M04 A3022 RMK AO2 SLP235 T00561039
KIPT 040554Z AUTO 30006KT 10SM OVC049 05/M03 A3022 RMK AO2 SLP237 T00501033 10061 20050 51011
KIPT 040454Z AUTO 29007KT 10SM OVC046 05/M01 A3021 RMK AO2 SLP233 T00501011 400780033
KIPT 040354Z AUTO 26005KT 10SM OVC045 05/M01 A3021 RMK AO2 SLP232 T00501011
KIPT 040254Z 29006KT 10SM OVC045 06/M02 A3019 RMK AO2 SLP226 T00561017 53004
KIPT 040154Z 29008KT 10SM OVC047 06/M01 A3019 RMK AO2 SLP225 T00561011
KIPT 040054Z 32007KT 10SM OVC044 06/M01 A3018 RMK AO2 SLP222 T00561006
KIPT 032354Z 27009KT 10SM OVC047 06/01 A3018 RMK AO2 SLP223 60000 T00560006 10072 20056 50007
KIPT 032254Z 28009KT 10SM SCT040 OVC055 06/01 A3018 RMK AO2 RAB09E35 SLP225 P0000 T00560006
KIPT 032154Z 31006KT 10SM OVC048 06/00 A3017 RMK AO2 SLP220 T00610000
KIPT 032054Z 30009KT 10SM OVC050 06/01 A3016 RMK AO2 RAB13E24 SLP215 P0000 60000 T00560006 53013
KIPT 031954Z 30011G18KT 10SM SCT041 OVC055 07/M01 A3012 RMK AO2 SLP204 T00721011
KIPT 031854Z 30012G18KT 10SM BKN045 OVC055 07/M01 A3010 RMK AO2 SLP196 T00721011
KIPT 031754Z 31011KT 10SM SCT041 OVC050 07/M01 A3012 RMK AO2 SLP201 T00721011 10078 20044 58002
KIPT 031654Z 30016G23KT 10SM BKN045 OVC050 07/M02 A3013 RMK AO2 PK WND 29026/1639 SLP206 T00721017
KIPT 031554Z 29013KT 10SM BKN043 07/M01 A3012 RMK AO2 SLP203 T00721011
KIPT 031454Z 28012KT 10SM BKN042 07/M01 A3012 RMK AO2 SLP204 T00671011 51011
KIPT 031354Z 29010KT 10SM OVC039 06/M01 A3011 RMK AO2 SLP201 T00611006
KIPT 031254Z 26008KT 10SM OVC042 04/01 A3010 RMK AO2 SLP197 T00440011
KIPT 031154Z 28006KT 10SM OVC044 04/01 A3009 RMK AO2 SLP193 60002 70003 T00440006 10050 20033 51018
KIPT 031054Z AUTO 30004KT 10SM OVC045 04/01 A3007 RMK AO2 SLP187 T00390011
KIPT 030854Z AUTO 30010KT 10SM FEW025 BKN031 OVC042 04/01 A3003 RMK AO2 PK WND 30026/0826 RAE53 SLP174 P0002 60002 T00390011 51016
KIPT 030754Z AUTO 31010G16KT 10SM -RA OVC028 04/01 A3003 RMK AO2 SLP174 P0000 T00390011
KIPT 030722Z AUTO 29008KT 10SM -RA FEW022 BKN036 OVC043 04/01 A3003 RMK AO2 P0000 T00440011
KIPT 030654Z AUTO 33008KT 10SM -RA OVC024 04/01 A3002 RMK AO2 RAB00E09B26 SLP169 P0000 T00440006
KIPT 030645Z AUTO 32006KT 10SM -RA BKN026 OVC033 05/00 A3001 RMK AO2 RAB00E09B26 P0000 T00500000
KIPT 030554Z AUTO 29012KT 10SM FEW031 BKN055 OVC070 05/M01 A2999 RMK AO2 SLP157 60001 T00501006 10056 20039 50002
KIPT 030454Z AUTO 28011KT 10SM BKN035 OVC044 06/M01 A2999 RMK AO2 SLP158 T00561006 400780039
KIPT 030354Z AUTO 28007KT 10SM FEW033 OVC048 05/00 A2998 RMK AO2 SLP156 T00500000
KIPT 030254Z 28009KT 10SM SCT049 BKN060 OVC080 04/00 A2998 RMK AO2 SLP156 60001 T00440000 53005
KIPT 030154Z 29009KT 10SM BKN037 OVC055 04/01 A2997 RMK AO2 SLP153 T00440011
KIPT 030054Z 27007KT 10SM FEW019 BKN050 OVC080 04/02 A2996 RMK AO2 RAE26B42E51 SLP150 P0001 T00390017
KIPT 030049Z 26006KT 10SM -RA FEW020 SCT031 OVC050 04/02 A2996 RMK AO2 RAE26B42 P0001
KIPT 030037Z 31007KT 10SM BKN020 BKN030 OVC036 04/02 A2997 RMK AO2 RAE26 P0001 T00390017
KIPT 030030Z 31004KT 10SM FEW018 BKN030 OVC034 04/02 A2997 RMK AO2 RAE26 P0001 T00390017
KIPT 022354Z 29010G19KT 7SM -RA BKN027 BKN034 OVC042 04/01 A2997 RMK AO2 RAB06E21B40 SLP152 P0000 60000 T00390011 10078 20039 53012
KIPT 022254Z 26009KT 10SM BKN036 BKN043 OVC055 06/00 A2995 RMK AO2 RAB36E54 SLP147 P0000 T00560000